Time;durP1;ratioP1;P1;durP2;ratioP2;P2;SDS_P1;SDS_P2;PMS_P1;PMS_P2;Temp;Humidity;BMP_temperature;BMP_pressure;BME280_temperature;BME280_humidity;BME280_pressure;Samples;Min_cycle;Max_cycle;Signal;HPM_P1;HPM_P2
2021/05/18 05:53:25;;;;;;;10.45;4.50;;;;;;;15.23;78.04;96514.16;1847877;76;22690;-67
2021/05/18 05:55:52;;;;;;;6.65;3.30;;;;;;;15.26;77.27;96516.71;1818259;79;21478;-68
2021/05/18 05:58:19;;;;;;;5.05;2.72;;;;;;;15.37;75.94;96516.34;1818079;79;21058;-65
2021/05/18 06:00:46;;;;;;;8.13;3.30;;;;;;;15.48;75.18;96515.44;1817844;79;21379;-67
2021/05/18 06:03:13;;;;;;;7.85;3.27;;;;;;;15.62;75.01;96516.27;1798568;77;20898;-66
2021/05/18 06:05:41;;;;;;;4.83;2.98;;;;;;;15.76;73.52;96513.83;1789560;79;21142;-66
2021/05/18 06:08:21;;;;;;;5.78;3.20;;;;;;;15.89;72.63;96511.19;1662966;84;20938;-73
2021/05/18 06:10:53;;;;;;;7.47;3.45;;;;;;;16.03;71.67;96518.17;1685388;84;21175;-67
2021/05/18 06:43:33;;;;;;;10.08;2.30;;;;;;;16.96;66.42;96515.73;1693834;84;20527;-74
2021/05/18 06:48:23;;;;;;;8.90;2.85;;;;;;;16.93;66.65;96516.49;1689968;84;21119;-73
2021/05/18 06:50:52;;;;;;;5.40;2.98;;;;;;;16.99;66.80;96510.39;1685323;84;21587;-64
2021/05/18 06:53:19;;;;;;;6.37;3.20;;;;;;;17.08;66.89;96510.10;1685619;84;21622;-71
2021/05/18 06:55:49;;;;;;;4.17;2.72;;;;;;;17.18;66.88;96512.73;1692888;84;21539;-70
2021/05/18 06:58:45;;;;;;;8.18;3.30;;;;;;;17.24;66.67;96518.80;1693271;84;21591;-64
2021/05/18 07:00:59;;;;;;;8.00;2.95;;;;;;;17.30;66.49;96511.94;1724658;82;21580;-67
2021/05/18 07:03:45;;;;;;;3.67;2.12;;;;;;;17.44;67.25;96517.52;1733908;82;21009;-67
2021/05/18 07:06:27;;;;;;;5.58;2.55;;;;;;;17.59;66.06;96507.06;1722338;83;21515;-65
2021/05/18 07:11:07;;;;;;;8.25;2.77;;;;;;;17.84;65.02;96503.27;1722134;83;21109;-70
2021/05/18 07:13:35;;;;;;;4.85;2.90;;;;;;;18.01;64.52;96502.66;1722165;83;21603;-65
2021/05/18 07:16:04;;;;;;;5.33;2.27;;;;;;;18.15;64.01;96498.72;1722197;83;21074;-68
2021/05/18 07:18:31;;;;;;;2.45;1.90;;;;;;;18.24;63.48;96503.24;1722282;83;20922;-66
2021/05/18 07:20:59;;;;;;;3.65;2.30;;;;;;;18.32;62.97;96494.60;1722071;83;21121;-66
2021/05/18 07:23:27;;;;;;;5.58;2.10;;;;;;;18.39;62.10;96500.83;1722179;83;21050;-66
2021/05/18 07:25:54;;;;;;;6.37;2.10;;;;;;;18.43;61.87;96503.58;1722137;82;21085;-65
2021/05/18 07:28:24;;;;;;;2.58;2.05;;;;;;;18.45;61.74;96508.05;1722235;83;21085;-65
2021/05/18 07:30:51;;;;;;;4.85;2.58;;;;;;;18.42;61.43;96503.37;1721986;83;21071;-69
2021/05/18 07:33:18;;;;;;;9.75;2.98;;;;;;;18.33;61.59;96503.70;1722351;83;21566;-68
2021/05/18 07:35:46;;;;;;;6.37;2.47;;;;;;;18.26;62.04;96498.80;1722193;83;21084;-65
2021/05/18 07:38:13;;;;;;;5.90;2.45;;;;;;;18.20;62.11;96504.38;1722246;83;21014;-64
2021/05/18 07:40:43;;;;;;;6.37;2.00;;;;;;;18.19;62.55;96503.59;1722140;83;21016;-66
2021/05/18 07:43:13;;;;;;;5.45;1.80;;;;;;;18.21;62.18;96503.20;1722152;83;21013;-66
2021/05/18 07:45:42;;;;;;;3.85;1.52;;;;;;;18.26;61.68;96497.44;1734365;82;21556;-65
2021/05/18 07:48:36;;;;;;;5.12;1.70;;;;;;;18.37;62.03;96495.61;1722164;83;21046;-67
2021/05/18 07:59:21;;;;;;;2.58;1.50;;;;;;;19.07;59.24;96479.01;1711692;83;21118;-66
2021/05/18 08:07:17;;;;;;;2.70;1.32;;;;;;;19.21;58.56;96474.22;1684588;85;21089;-68
2021/05/18 08:10:08;;;;;;;2.35;1.70;;;;;;;19.18;58.74;96479.04;1698734;83;21073;-67
2021/05/18 08:12:36;;;;;;;4.17;1.60;;;;;;;19.17;58.59;96478.86;1694169;83;21040;-65
2021/05/18 10:36:04;;;;;;;2.67;1.10;;;;;;;17.66;56.74;96517.97;1652936;86;21073;-66
2021/05/18 10:38:43;;;;;;;1.92;1.07;;;;;;;17.50;57.52;96526.84;1652778;86;21068;-70
2021/05/18 10:41:24;;;;;;;2.00;1.30;;;;;;;17.32;57.88;96532.64;1652052;86;21013;-68
2021/05/18 10:44:02;;;;;;;5.00;1.50;;;;;;;17.12;58.78;96535.30;1648492;85;20953;-68
2021/05/18 10:46:34;;;;;;;3.33;1.98;;;;;;;16.94;60.12;96539.66;1646934;87;21004;-68
2021/05/18 10:49:05;;;;;;;9.38;2.22;;;;;;;16.73;61.76;96543.42;1622046;87;20937;-63
2021/05/18 10:51:40;;;;;;;4.87;2.15;;;;;;;16.57;63.22;96545.50;1696849;83;23556;-67
2021/05/18 10:54:19;;;;;;;3.05;1.70;;;;;;;16.43;64.92;96541.42;1686783;83;21605;-63
2021/05/18 10:57:13;;;;;;;3.05;1.85;;;;;;;16.33;66.03;96532.56;1651984;85;21102;-68
2021/05/18 10:59:55;;;;;;;4.37;1.55;;;;;;;16.24;66.73;96537.44;1651855;85;21062;-67
2021/05/18 11:02:37;;;;;;;4.25;1.12;;;;;;;16.19;66.30;96535.03;1676559;85;21027;-72
2021/05/18 11:05:11;;;;;;;2.10;0.98;;;;;;;16.18;65.55;96528.06;1678453;84;21149;-65
2021/05/18 11:07:45;;;;;;;3.47;1.70;;;;;;;16.18;64.44;96529.41;1670086;84;21028;-65
2021/05/18 11:10:18;;;;;;;1.32;0.90;;;;;;;16.21;63.61;96526.00;1661449;86;21580;-63
2021/05/18 11:12:57;;;;;;;1.52;0.70;;;;;;;16.23;63.15;96526.41;1698847;84;21633;-67
2021/05/18 11:15:25;;;;;;;1.55;0.70;;;;;;;16.26;62.63;96520.30;1699198;84;21067;-67
2021/05/18 11:17:53;;;;;;;8.18;0.98;;;;;;;16.31;62.83;96517.86;1669112;86;21137;-68
2021/05/18 11:20:45;;;;;;;1.17;0.68;;;;;;;16.38;63.22;96516.05;1670817;85;21614;-66
2021/05/18 11:23:21;;;;;;;2.67;0.80;;;;;;;16.50;63.29;96508.88;1695040;84;21144;-66
2021/05/18 11:26:10;;;;;;;2.75;0.70;;;;;;;16.52;62.83;96503.91;1669797;83;21157;-70
2021/05/18 11:28:47;;;;;;;1.62;0.62;;;;;;;16.47;62.95;96498.78;1679157;84;21563;-66
2021/05/18 11:31:26;;;;;;;1.77;0.60;;;;;;;16.47;63.72;96505.55;1702136;84;21604;-67
2021/05/18 11:33:57;;;;;;;1.20;0.72;;;;;;;16.48;63.93;96503.06;1705734;84;21014;-66
2021/05/18 11:36:28;;;;;;;0.68;0.60;;;;;;;16.43;64.10;96505.50;1705198;84;21622;-64
2021/05/18 11:39:07;;;;;;;2.27;0.88;;;;;;;16.37;64.76;96499.61;1690682;83;21021;-63
2021/05/18 11:41:38;;;;;;;2.22;0.80;;;;;;;16.35;65.06;96491.66;1700381;84;21084;-62
2021/05/18 11:44:07;;;;;;;1.70;0.82;;;;;;;16.43;65.80;96490.64;1700487;84;21572;-63
2021/05/18 11:46:35;;;;;;;1.42;0.80;;;;;;;16.51;65.08;96485.56;1695087;84;20986;-63
2021/05/18 11:49:08;;;;;;;1.10;0.82;;;;;;;16.57;64.74;96480.63;1705520;83;20979;-65
2021/05/18 11:51:52;;;;;;;3.33;0.85;;;;;;;16.61;64.81;96474.70;1707795;83;21158;-64
2021/05/18 11:54:27;;;;;;;7.22;1.00;;;;;;;16.66;64.92;96468.98;1700312;83;21022;-64
2021/05/18 11:56:57;;;;;;;1.60;1.00;;;;;;;16.77;64.66;96465.87;1700552;83;21737;-64
2021/05/18 11:59:25;;;;;;;2.45;1.30;;;;;;;16.88;65.33;96468.91;1700419;83;21103;-64
2021/05/18 12:01:58;;;;;;;2.17;0.90;;;;;;;17.00;64.69;96470.01;1700511;83;21403;-62
2021/05/18 12:04:27;;;;;;;1.90;1.05;;;;;;;17.12;64.48;96473.08;1700531;84;21566;-65
2021/05/18 12:07:00;;;;;;;2.33;0.78;;;;;;;17.22;64.15;96477.81;1700530;83;21100;-63
2021/05/18 12:09:31;;;;;;;4.28;3.60;;;;;;;17.28;63.71;96493.94;1694611;83;21608;-64
2021/05/18 12:12:02;;;;;;;3.17;1.92;;;;;;;17.24;65.25;96535.04;1693190;84;20930;-64
2021/05/18 12:14:30;;;;;;;5.30;1.40;;;;;;;17.02;64.49;96535.92;1693207;84;21394;-62
2021/05/18 12:16:57;;;;;;;4.10;1.32;;;;;;;16.78;62.52;96530.95;1693229;84;21132;-62
2021/05/18 12:19:24;;;;;;;5.10;1.55;;;;;;;16.61;62.43;96532.81;1693177;84;21153;-67
2021/05/18 12:21:56;;;;;;;4.17;1.10;;;;;;;16.44;63.21;96530.80;1692622;84;21489;-64
2021/05/18 12:24:27;;;;;;;2.95;1.10;;;;;;;16.34;62.97;96528.73;1693230;84;21093;-64
2021/05/18 12:27:01;;;;;;;4.10;1.30;;;;;;;16.27;63.39;96527.23;1693281;84;21595;-65
2021/05/18 12:29:45;;;;;;;4.67;1.52;;;;;;;16.29;63.53;96530.95;1693093;84;21527;-66
2021/05/18 12:32:22;;;;;;;3.62;1.20;;;;;;;16.25;64.40;96540.33;1693168;84;20934;-64
2021/05/18 12:34:57;;;;;;;2.45;1.10;;;;;;;16.21;63.75;96544.91;1693180;84;21178;-64
2021/05/18 12:37:35;;;;;;;2.45;1.00;;;;;;;16.16;64.16;96544.41;1688615;84;20969;-63
2021/05/18 12:40:30;;;;;;;3.42;1.15;;;;;;;16.14;64.20;96542.09;1681611;85;20891;-67
2021/05/18 12:43:23;;;;;;;4.03;1.13;;;;;;;16.13;64.80;96539.16;1685479;85;21101;-69
2021/05/18 12:46:11;;;;;;;2.80;1.60;;;;;;;16.13;64.80;96539.16;1686287;85;21584;-65
2021/05/18 12:48:47;;;;;;;2.40;1.80;;;;;;;16.15;65.25;96547.70;1685381;85;22611;-66
2021/05/18 12:51:18;;;;;;;3.65;1.90;;;;;;;16.18;65.51;96546.21;1681095;84;21621;-65
2021/05/18 12:53:44;;;;;;;;;;;;;;;16.20;66.24;96549.33;1685291;85;21041;-63
2021/05/18 12:56:15;;;;;;;2.62;1.72;;;;;;;16.26;66.70;96550.57;1661442;85;20526;-64
2021/05/18 12:58:42;;;;;;;2.60;2.10;;;;;;;16.27;67.14;96552.91;1656420;86;21148;-64
2021/05/18 13:01:13;;;;;;;2.70;2.00;;;;;;;16.28;67.76;96553.12;1664058;85;21192;-65
2021/05/18 13:53:56;;;;;;;6.67;3.87;;;;;;;15.82;75.86;96523.20;1888419;76;23031;-63
2021/05/18 13:56:24;;;;;;;4.08;2.98;;;;;;;15.81;75.41;96522.20;1859470;77;20969;-64
2021/05/18 13:58:52;;;;;;;3.75;3.05;;;;;;;15.88;75.39;96519.06;1859468;77;21132;-63
2021/05/18 14:01:21;;;;;;;4.50;2.35;;;;;;;16.00;75.16;96528.34;1859896;77;21546;-64
2021/05/18 14:03:48;;;;;;;4.37;2.83;;;;;;;16.16;74.91;96527.64;1861218;77;20953;-70
2021/05/18 14:06:17;;;;;;;4.17;2.52;;;;;;;16.31;74.43;96528.09;1860235;76;20985;-63
2021/05/18 14:08:45;;;;;;;4.00;2.70;;;;;;;16.49;73.90;96535.71;1858698;77;20850;-64
2021/05/18 14:11:20;;;;;;;3.30;2.55;;;;;;;16.65;73.58;96528.26;1858698;77;21048;-66
2021/05/18 14:13:53;;;;;;;5.65;2.87;;;;;;;16.80;73.15;96530.80;1858532;77;21487;-65
2021/05/18 14:16:22;;;;;;;4.33;2.60;;;;;;;16.91;72.29;96535.77;1858627;77;20886;-69
2021/05/18 14:18:54;;;;;;;6.10;3.80;;;;;;;17.00;71.96;96539.58;1858616;77;21542;-65
2021/05/18 14:21:23;;;;;;;5.75;3.55;;;;;;;17.09;71.97;96536.02;1858517;77;20929;-63
2021/05/18 14:26:25;;;;;;;7.17;3.62;;;;;;;17.23;72.39;96530.80;1858508;77;20969;-65
2021/05/18 14:28:52;;;;;;;6.67;3.70;;;;;;;17.24;72.79;96536.39;1858561;77;20997;-64
2021/05/18 14:31:21;;;;;;;4.47;3.17;;;;;;;17.25;72.36;96541.23;1858608;77;20961;-63
2021/05/18 14:33:48;;;;;;;6.58;3.33;;;;;;;17.30;71.86;96539.00;1858592;77;20961;-63
2021/05/18 14:36:15;;;;;;;3.02;2.62;;;;;;;17.34;72.27;96545.22;1838234;77;21193;-65
2021/05/18 14:38:45;;;;;;;3.35;2.47;;;;;;;17.32;71.66;96552.94;1827042;78;21069;-64
2021/05/18 14:44:11;;;;;;;4.33;2.00;;;;;;;17.30;70.11;96552.53;1827317;78;21068;-62
2021/05/18 14:57:07;;;;;;;2.77;1.90;;;;;;;16.95;68.83;96566.37;1856740;77;21114;-65
2021/05/18 14:59:35;;;;;;;2.77;2.00;;;;;;;16.89;69.49;96569.73;1856942;77;21428;-64
2021/05/18 15:02:03;;;;;;;2.08;1.70;;;;;;;16.81;69.86;96570.78;1856148;77;21841;-66
2021/05/18 15:04:31;;;;;;;2.00;1.57;;;;;;;16.74;69.74;96582.28;1853139;77;21380;-66
2021/05/18 15:06:58;;;;;;;4.37;1.98;;;;;;;16.68;69.76;96578.30;1853374;77;21494;-66
2021/05/18 15:09:25;;;;;;;2.08;1.40;;;;;;;16.66;70.17;96582.52;1853574;77;21459;-64
2021/05/18 15:11:53;;;;;;;2.52;1.42;;;;;;;16.58;70.35;96588.97;1853506;77;21423;-65
2021/05/18 15:14:20;;;;;;;1.80;1.42;;;;;;;16.50;70.93;96599.41;1852958;77;21230;-62
2021/05/18 15:16:48;;;;;;;1.87;1.30;;;;;;;16.36;71.37;96603.45;1858908;77;20949;-65
2021/05/18 15:19:17;;;;;;;2.83;1.35;;;;;;;16.24;71.52;96606.89;1860258;77;20973;-65
2021/05/18 15:21:44;;;;;;;1.80;1.55;;;;;;;16.11;71.93;96604.92;1832117;77;21455;-66
2021/05/18 15:24:12;;;;;;;2.10;1.80;;;;;;;16.03;72.72;96601.11;1826604;78;21076;-65
2021/05/18 15:26:39;;;;;;;2.35;2.00;;;;;;;15.92;73.22;96595.49;1826741;78;21035;-66
2021/05/18 15:29:06;;;;;;;2.62;2.40;;;;;;;15.83;73.76;96607.69;1826635;78;20901;-63
2021/05/18 15:31:35;;;;;;;4.72;2.58;;;;;;;15.74;74.20;96610.58;1826602;78;20893;-64
2021/05/18 15:34:02;;;;;;;2.55;2.20;;;;;;;15.65;74.64;96608.67;1826609;78;21473;-64
2021/05/18 15:36:29;;;;;;;4.08;2.25;;;;;;;15.60;75.33;96608.39;1844983;77;21091;-63
2021/05/18 15:38:56;;;;;;;2.00;1.80;;;;;;;15.55;75.28;96617.33;1846564;77;21036;-62
2021/05/18 15:41:24;;;;;;;2.85;2.20;;;;;;;15.51;75.66;96611.88;1846802;77;20920;-65
2021/05/18 15:43:51;;;;;;;6.28;2.30;;;;;;;15.47;76.22;96608.89;1846602;77;21084;-65
2021/05/18 15:46:19;;;;;;;2.27;1.95;;;;;;;15.44;76.62;96607.68;1854045;76;20996;-67
2021/05/18 15:48:47;;;;;;;2.27;1.90;;;;;;;15.42;76.82;96611.84;1860402;77;21300;-64
2021/05/18 15:51:15;;;;;;;2.58;1.52;;;;;;;15.37;77.00;96616.16;1860294;77;21121;-62
2021/05/18 15:53:42;;;;;;;3.27;1.92;;;;;;;15.33;77.25;96613.96;1852373;77;20835;-64
2021/05/18 15:56:10;;;;;;;3.55;2.08;;;;;;;15.27;77.49;96612.09;1848568;77;21507;-65
2021/05/18 15:58:38;;;;;;;2.75;2.12;;;;;;;15.24;77.84;96606.64;1848703;77;20973;-64
2021/05/18 16:01:05;;;;;;;2.47;1.70;;;;;;;15.22;78.38;96611.02;1828391;77;20914;-63
2021/05/18 16:03:33;;;;;;;1.90;1.62;;;;;;;15.21;78.38;96615.43;1815721;79;21054;-65
2021/05/18 16:06:02;;;;;;;6.12;2.25;;;;;;;15.17;78.58;96615.93;1815328;79;20957;-66
2021/05/18 16:11:07;;;;;;;2.33;1.62;;;;;;;15.16;78.74;96617.05;1817580;78;21072;-66
2021/05/18 16:13:35;;;;;;;4.00;1.80;;;;;;;15.17;78.85;96624.02;1830532;76;21397;-65
2021/05/18 16:16:08;;;;;;;4.47;1.70;;;;;;;15.18;79.01;96622.31;1843276;76;21432;-65
2021/05/18 16:18:36;;;;;;;1.90;1.57;;;;;;;15.20;78.97;96627.34;1792891;80;20903;-65
2021/05/18 16:21:06;;;;;;;4.30;1.75;;;;;;;15.20;78.81;96625.99;1814155;79;20994;-65
2021/05/18 16:23:35;;;;;;;1.85;1.72;;;;;;;15.19;78.68;96627.90;1829083;76;20890;-65
2021/05/18 16:26:03;;;;;;;1.52;1.42;;;;;;;15.16;78.38;96629.19;1843572;77;20950;-64
2021/05/18 16:28:30;;;;;;;2.58;1.60;;;;;;;15.14;78.34;96628.77;1841736;78;20984;-65
2021/05/18 16:30:58;;;;;;;2.58;1.70;;;;;;;15.10;78.75;96616.53;1841920;78;21897;-63
2021/05/18 16:33:25;;;;;;;1.92;1.62;;;;;;;15.11;78.86;96620.80;1841713;78;20877;-65
2021/05/18 16:35:52;;;;;;;1.75;1.60;;;;;;;15.14;78.90;96617.97;1841940;78;21483;-64
2021/05/18 16:38:19;;;;;;;2.10;1.80;;;;;;;15.16;78.94;96614.35;1842663;77;20910;-64
2021/05/18 16:40:51;;;;;;;2.00;1.77;;;;;;;15.17;78.69;96611.89;1844493;77;21040;-65
2021/05/18 16:43:16;;;;;;;2.25;1.60;;;;;;;15.15;78.22;96616.83;1844062;77;20998;-65
2021/05/18 16:45:43;;;;;;;1.95;1.67;;;;;;;15.06;78.18;96617.81;1819987;77;21009;-66
2021/05/18 16:48:12;;;;;;;3.27;2.00;;;;;;;15.00;78.35;96619.20;1815988;77;20957;-63
2021/05/18 16:50:39;;;;;;;1.90;1.75;;;;;;;14.97;78.39;96621.27;1836331;78;21511;-65
2021/05/18 16:53:06;;;;;;;2.00;1.85;;;;;;;14.92;78.42;96623.45;1791295;79;21510;-62
2021/05/18 16:55:34;;;;;;;2.77;1.92;;;;;;;14.88;78.48;96626.08;1796748;79;21006;-65
